createdAt,value
2022-10-14T00:03:16.071Z,0.00
2022-10-14T00:08:16.793Z,0.00
2022-10-14T00:13:17.500Z,0.00
2022-10-14T00:18:18.317Z,0.00
2022-10-14T00:23:19.059Z,0.00
2022-10-14T00:28:19.912Z,0.00
2022-10-14T00:33:20.744Z,0.00
2022-10-14T00:38:21.525Z,0.00
2022-10-14T00:43:22.293Z,0.00
2022-10-14T00:48:23.063Z,0.00
2022-10-14T00:53:23.897Z,0.00
2022-10-14T00:58:24.670Z,0.00
2022-10-14T01:03:25.410Z,0.00
2022-10-14T01:08:26.141Z,0.00
2022-10-14T01:13:26.937Z,0.00
2022-10-14T01:18:27.727Z,0.00
2022-10-14T01:23:28.509Z,0.00
2022-10-14T01:28:30.009Z,0.00
2022-10-14T01:33:29.925Z,0.00
2022-10-14T01:38:30.636Z,0.00
2022-10-14T01:43:31.414Z,0.00
2022-10-14T01:48:32.109Z,0.00
2022-10-14T01:53:32.853Z,0.00
2022-10-14T01:58:33.622Z,0.00
2022-10-14T02:03:34.372Z,0.00
2022-10-14T02:08:35.208Z,0.00
2022-10-14T02:13:35.899Z,0.00
2022-10-14T02:18:36.759Z,0.00
2022-10-14T02:23:37.569Z,0.00
2022-10-14T02:28:38.553Z,0.00
2022-10-14T02:33:39.253Z,0.00
2022-10-14T02:38:39.987Z,0.00
2022-10-14T02:43:40.777Z,0.00
2022-10-14T02:48:41.486Z,0.00
2022-10-14T02:53:42.259Z,0.00
2022-10-14T02:58:42.950Z,0.00
2022-10-14T03:03:43.703Z,0.00
2022-10-14T03:08:44.485Z,0.00
2022-10-14T03:13:45.198Z,0.00
2022-10-14T03:18:45.968Z,0.00
2022-10-14T03:23:46.716Z,0.00
2022-10-14T03:28:47.511Z,0.00
2022-10-14T03:33:48.239Z,0.00
2022-10-14T03:38:48.990Z,0.00
2022-10-14T03:43:49.708Z,0.00
2022-10-14T03:48:50.451Z,0.00
2022-10-14T03:53:51.260Z,0.00
2022-10-14T03:58:51.964Z,0.00
2022-10-14T04:03:52.739Z,0.00
2022-10-14T04:08:53.476Z,0.00
2022-10-14T04:14:01.194Z,0.00
2022-10-14T04:18:54.940Z,0.00
2022-10-14T04:23:55.649Z,0.00
2022-10-14T04:28:56.419Z,0.00
2022-10-14T04:33:57.142Z,0.00
2022-10-14T04:38:57.861Z,0.00
2022-10-14T04:43:58.586Z,0.00
2022-10-14T04:48:59.328Z,0.00
2022-10-14T04:54:00.084Z,0.00
2022-10-14T04:59:00.756Z,1.00
2022-10-14T05:04:01.445Z,2.00
2022-10-14T05:09:02.102Z,4.00
2022-10-14T05:14:02.750Z,1.00
2022-10-14T05:19:03.463Z,5.00
2022-10-14T05:24:04.143Z,12.00
2022-10-14T05:29:04.803Z,28.00
2022-10-14T05:34:05.494Z,40.00
2022-10-14T05:39:06.167Z,50.00
2022-10-14T05:44:06.837Z,59.00
2022-10-14T05:49:07.512Z,86.00
2022-10-14T05:54:08.171Z,138.00
2022-10-14T05:59:08.866Z,246.00
2022-10-14T06:04:09.588Z,336.00
2022-10-14T06:09:11.565Z,403.00
2022-10-14T06:14:10.811Z,374.00
2022-10-14T06:19:11.503Z,454.00
2022-10-14T06:24:12.322Z,498.00
2022-10-14T06:29:12.939Z,497.00
2022-10-14T06:34:13.613Z,544.00
2022-10-14T06:39:14.285Z,664.00
2022-10-14T06:44:14.946Z,823.00
2022-10-14T06:49:15.607Z,905.00
2022-10-14T06:54:16.290Z,986.00
2022-10-14T06:59:16.947Z,1029.00
2022-10-14T07:04:17.620Z,969.00
2022-10-14T07:09:18.303Z,1096.00
2022-10-14T07:14:18.970Z,1187.00
2022-10-14T07:19:19.611Z,1321.00
2022-10-14T07:24:20.307Z,1489.00
2022-10-14T07:29:20.986Z,1553.00
2022-10-14T07:34:21.648Z,1297.00
2022-10-14T07:39:22.320Z,1247.00
2022-10-14T07:44:26.466Z,1450.00
2022-10-14T07:49:23.527Z,1448.00
2022-10-14T07:54:24.236Z,1640.00
2022-10-14T07:59:24.915Z,1562.00
2022-10-14T08:04:25.565Z,1812.00
2022-10-14T08:14:26.866Z,1897.00
2022-10-14T08:19:27.504Z,2472.00
2022-10-14T08:24:28.200Z,2325.00
2022-10-14T08:29:28.909Z,2120.00
2022-10-14T08:34:29.569Z,1729.00
2022-10-14T08:39:30.260Z,1867.00
2022-10-14T08:44:30.936Z,3263.00
2022-10-14T08:49:31.604Z,4087.00
2022-10-14T08:54:32.289Z,1570.00
2022-10-14T08:59:32.956Z,5022.00
2022-10-14T09:04:33.633Z,4521.00
2022-10-14T09:09:34.326Z,2627.00
2022-10-14T09:14:34.979Z,3963.00
2022-10-14T09:19:35.671Z,2944.00
2022-10-14T09:24:36.310Z,4552.00
2022-10-14T09:29:37.009Z,4956.00
2022-10-14T09:34:37.681Z,3927.00
2022-10-14T09:39:38.331Z,2849.00
2022-10-14T09:44:39.035Z,2707.00
2022-10-14T09:49:39.700Z,2509.00
2022-10-14T09:54:40.379Z,3955.00
2022-10-14T09:59:41.076Z,2688.00
2022-10-14T10:04:41.748Z,3890.00
2022-10-14T10:09:42.383Z,5063.00
2022-10-14T10:14:50.099Z,4063.00
2022-10-14T10:19:43.848Z,3466.00
2022-10-14T10:24:44.524Z,2413.00
2022-10-14T10:29:45.156Z,3292.00
2022-10-14T10:34:45.877Z,3474.00
2022-10-14T10:39:46.559Z,2926.00
2022-10-14T10:44:47.264Z,2986.00
2022-10-14T10:49:47.984Z,3456.00
2022-10-14T10:54:48.646Z,3588.00
2022-10-14T10:59:49.350Z,2828.00
2022-10-14T11:04:50.030Z,2759.00
2022-10-14T11:09:50.723Z,3125.00
2022-10-14T11:14:51.400Z,3854.00
2022-10-14T11:19:52.137Z,2526.00
2022-10-14T11:24:52.869Z,4134.00
2022-10-14T11:29:53.500Z,3572.00
2022-10-14T11:34:54.250Z,3181.00
2022-10-14T11:39:55.104Z,1452.00
2022-10-14T11:44:55.854Z,3008.00
2022-10-14T11:49:56.470Z,6329.00
2022-10-14T11:54:57.281Z,4723.00
2022-10-14T11:59:58.032Z,2977.00
2022-10-14T12:04:58.665Z,2704.00
2022-10-14T12:10:00.078Z,3023.00
2022-10-14T12:15:00.033Z,2269.00
2022-10-14T12:20:00.649Z,2984.00
2022-10-14T12:25:01.451Z,2730.00
2022-10-14T12:30:02.140Z,2315.00
2022-10-14T12:35:02.954Z,2246.00
2022-10-14T12:40:03.740Z,1814.00
2022-10-14T12:45:04.364Z,1134.00
2022-10-14T12:50:05.034Z,1246.00
2022-10-14T12:55:05.743Z,2456.00
2022-10-14T13:00:06.503Z,2313.00
2022-10-14T13:05:07.173Z,631.00
2022-10-14T13:10:07.862Z,3940.00
2022-10-14T13:15:08.541Z,2889.00
2022-10-14T13:20:09.202Z,1327.00
2022-10-14T13:25:09.882Z,2924.00
2022-10-14T13:30:10.697Z,2473.00
2022-10-14T13:35:12.075Z,2349.00
2022-10-14T13:40:12.472Z,2104.00
2022-10-14T13:45:13.241Z,2072.00
2022-10-14T13:50:13.908Z,1969.00
2022-10-14T13:55:14.720Z,1731.00
2022-10-14T14:05:17.018Z,1567.00
2022-10-14T14:10:16.648Z,1955.00
2022-10-14T14:15:17.434Z,1398.00
2022-10-14T14:20:18.209Z,859.00
2022-10-14T14:25:35.683Z,520.00
2022-10-14T14:30:20.950Z,920.00
2022-10-14T14:35:22.821Z,697.00
2022-10-14T14:40:20.756Z,1187.00
2022-10-14T14:45:21.468Z,1032.00
2022-10-14T14:50:30.878Z,753.00
2022-10-14T14:55:23.627Z,204.00
2022-10-14T15:00:23.310Z,380.00
2022-10-14T15:05:24.307Z,2308.00
2022-10-14T15:10:24.975Z,1302.00
2022-10-14T15:15:25.706Z,646.00
2022-10-14T15:20:26.402Z,510.00
2022-10-14T15:25:27.056Z,428.00
2022-10-14T15:30:27.736Z,394.00
2022-10-14T15:35:28.460Z,368.00
2022-10-14T15:40:29.174Z,344.00
2022-10-14T15:45:29.990Z,326.00
2022-10-14T15:50:30.687Z,274.00
2022-10-14T15:55:31.390Z,227.00
2022-10-14T16:00:32.104Z,193.00
2022-10-14T16:05:32.920Z,160.00
2022-10-14T16:10:34.480Z,127.00
2022-10-14T16:15:41.177Z,89.00
2022-10-14T16:20:34.826Z,55.00
2022-10-14T16:25:35.537Z,29.00
2022-10-14T16:30:36.186Z,16.00
2022-10-14T16:35:36.840Z,8.00
2022-10-14T16:40:37.515Z,2.00
2022-10-14T16:45:38.212Z,1.00
2022-10-14T16:50:39.004Z,0.00
2022-10-14T16:55:39.756Z,0.00
2022-10-14T17:00:40.507Z,0.00
2022-10-14T17:05:41.229Z,0.00
2022-10-14T17:10:42.016Z,0.00
2022-10-14T17:15:42.743Z,0.00
2022-10-14T17:20:43.475Z,0.00
2022-10-14T17:25:44.198Z,0.00
2022-10-14T17:30:44.899Z,0.00
2022-10-14T17:35:45.671Z,0.00
2022-10-14T17:40:46.431Z,0.00
2022-10-14T17:45:47.151Z,0.00
2022-10-14T17:50:47.850Z,0.00
2022-10-14T17:55:50.695Z,0.00
2022-10-14T18:00:49.517Z,0.00
2022-10-14T18:05:50.508Z,0.00
2022-10-14T18:10:50.825Z,0.00
2022-10-14T18:15:51.498Z,0.00
2022-10-14T18:20:52.289Z,0.00
2022-10-14T18:25:53.108Z,0.00
2022-10-14T18:30:53.955Z,0.00
2022-10-14T18:35:54.740Z,0.00
2022-10-14T18:40:55.547Z,0.00
2022-10-14T18:45:56.301Z,0.00
2022-10-14T18:50:57.144Z,0.00
2022-10-14T18:55:59.500Z,0.00
2022-10-14T19:00:58.869Z,0.00
2022-10-14T19:05:59.580Z,0.00
2022-10-14T19:11:00.309Z,0.00
2022-10-14T19:16:01.014Z,0.00
2022-10-14T19:21:01.758Z,0.00
2022-10-14T19:26:02.466Z,0.00
2022-10-14T19:31:03.235Z,0.00
2022-10-14T19:36:03.987Z,0.00
2022-10-14T19:41:04.820Z,0.00
2022-10-14T19:46:05.474Z,0.00
2022-10-14T19:51:07.168Z,0.00
2022-10-14T19:56:07.064Z,0.00
2022-10-14T20:01:07.842Z,0.00
2022-10-14T20:06:08.679Z,0.00
2022-10-14T20:11:09.406Z,0.00
2022-10-14T20:16:10.165Z,0.00
2022-10-14T20:21:10.883Z,0.00
2022-10-14T20:26:11.651Z,0.00
2022-10-14T20:31:12.408Z,0.00
2022-10-14T20:36:13.090Z,0.00
2022-10-14T20:41:13.874Z,0.00
2022-10-14T20:46:14.555Z,0.00
2022-10-14T20:51:15.270Z,0.00
2022-10-14T20:56:16.115Z,0.00
2022-10-14T21:01:17.059Z,0.00
2022-10-14T21:06:17.412Z,0.00
2022-10-14T21:11:18.250Z,0.00
2022-10-14T21:16:19.068Z,0.00
2022-10-14T21:21:19.858Z,0.00
2022-10-14T21:26:20.633Z,0.00
2022-10-14T21:31:21.624Z,0.00
2022-10-14T21:36:22.170Z,0.00
2022-10-14T21:41:22.444Z,0.00
2022-10-14T21:46:23.325Z,0.00
2022-10-14T21:51:24.169Z,0.00
2022-10-14T21:56:25.022Z,0.00
2022-10-14T22:01:25.801Z,0.00
2022-10-14T22:06:26.629Z,0.00
2022-10-14T22:11:27.516Z,0.00
2022-10-14T22:16:28.365Z,0.00
2022-10-14T22:21:29.227Z,0.00
2022-10-14T22:26:30.199Z,0.00
2022-10-14T22:31:30.539Z,0.00
2022-10-14T22:36:31.371Z,0.00
2022-10-14T22:41:35.419Z,0.00
2022-10-14T22:46:32.669Z,0.00
2022-10-14T22:51:33.395Z,0.00
2022-10-14T22:56:34.068Z,0.00
2022-10-14T23:01:34.997Z,0.00
2022-10-14T23:06:35.823Z,0.00
2022-10-14T23:11:36.548Z,0.00
2022-10-14T23:16:44.302Z,0.00
2022-10-14T23:21:38.147Z,0.00
2022-10-14T23:26:38.898Z,0.00
2022-10-14T23:31:39.670Z,0.00
2022-10-14T23:36:40.624Z,0.00
2022-10-14T23:41:41.046Z,0.00
2022-10-14T23:46:41.758Z,0.00
2022-10-14T23:51:42.627Z,0.00
2022-10-14T23:56:43.393Z,0.00
